Rinely, Pennsylvania
Current Conditions -  °F | °C
As of 4:53 AM on Sunday 25 Jan 2015 (Local Time) from KTHV Reporting Station
Overcast Overcast  
Wind Chill: 31°   Ceiling: 4200
Heat Index: 37°   Visibility: 10mi
Dew Point: 27°   Wind: 8mph
Humidity: 67%   Direction: 250°WSW
Pressure: 29.69"   Gusts: NA
Location:  39.7708°N, 76.5918°W
Report Text: KTHV 250953Z AUTO 25007KT 10SM OVC042 03/M03 A2969 RMK AO2 SLP058 T00281028
Loading
Personal Weather Stations






























Interactive Weather Map New forecast layout! Learn more

10-Day Weather Forecast

Advertisements
Track Severe Weather on mobile